Home > Products > Valid Products > TAF

000
FTUS45 KBYZ 230530
TAFSHR
TAF
KSHR 230530Z 2306/2406 13015G28KT P6SM BKN120
     FM230800 14008KT P6SM OVC120
     FM231500 VRB05KT P6SM VCSH SCT020 BKN070
     FM240000 30010KT P6SM SHRA OVC050=



000
FTUS45 KBYZ 230530
TAFBIL
TAF
KBIL 230530Z 2306/2406 10008KT P6SM BKN120
     FM230800 VRB05KT P6SM SCT030 BKN120
     FM231300 04010KT P6SM BKN050
     FM231800 04011KT P6SM VCSH BKN030 OVC070=



000
FTUS45 KBYZ 230530
TAFMLS
TAF
KMLS 230530Z 2306/2406 14009KT P6SM SCT090 BKN180
     FM231200 09010KT P6SM FEW080 BKN110=



000
FTUS45 KBYZ 230530
TAFSHR
TAF
KSHR 230530Z 2306/2406 13015G28KT P6SM BKN120
     FM230800 14008KT P6SM OVC120
     FM231500 VRB05KT P6SM VCSH SCT020 BKN070
     FM240000 30010KT P6SM SHRA OVC050=



000
FTUS45 KBYZ 230530
TAFLVM
TAF
KLVM 230530Z 2306/2406 10006KT P6SM VCSH SCT025 OVC110
     FM230800 10006KT P6SM SCT030 OVC110
     FM231200 08012KT P6SM VCSH SCT025 OVC050=



000
FTUS45 KBYZ 230530
TAFMLS
TAF
KMLS 230530Z 2306/2406 14009KT P6SM SCT090 BKN180
     FM231200 09010KT P6SM FEW080 BKN110=



000
FTUS45 KBYZ 230530
TAFBIL
TAF
KBIL 230530Z 2306/2406 10008KT P6SM BKN120
     FM230800 VRB05KT P6SM SCT030 BKN120
     FM231300 04010KT P6SM BKN050
     FM231800 04011KT P6SM VCSH BKN030 OVC070=



000
FTUS45 KBYZ 230530
TAFLVM
TAF
KLVM 230530Z 2306/2406 10006KT P6SM VCSH SCT025 OVC110
     FM230800 10006KT P6SM SCT030 OVC110
     FM231200 08012KT P6SM VCSH SCT025 OVC050=



000
FTUS45 KBYZ 230530
TAFLVM
TAF
KLVM 230530Z 2306/2406 10006KT P6SM VCSH SCT025 OVC110
     FM230800 10006KT P6SM SCT030 OVC110
     FM231200 08012KT P6SM VCSH SCT025 OVC050=



000
FTUS45 KBYZ 230530
TAFMLS
TAF
KMLS 230530Z 2306/2406 14009KT P6SM SCT090 BKN180
     FM231200 09010KT P6SM FEW080 BKN110=



000
FTUS45 KBYZ 230530
TAFSHR
TAF
KSHR 230530Z 2306/2406 13015G28KT P6SM BKN120
     FM230800 14008KT P6SM OVC120
     FM231500 VRB05KT P6SM VCSH SCT020 BKN070
     FM240000 30010KT P6SM SHRA OVC050=



000
FTUS45 KBYZ 230530
TAFBIL
TAF
KBIL 230530Z 2306/2406 10008KT P6SM BKN120
     FM230800 VRB05KT P6SM SCT030 BKN120
     FM231300 04010KT P6SM BKN050
     FM231800 04011KT P6SM VCSH BKN030 OVC070=



000
FTUS45 KBYZ 230001 AAA
TAFBIL
TAF AMD
KBIL 230001Z 2300/2324 13012KT P6SM VCSH SCT050 BKN080
      TEMPO 2301/2302 6SM -TSRA BKN050CB
     FM230530 02008KT P6SM FEW060 BKN120
     FM231400 04011KT P6SM VCSH SCT015 BKN030 OVC070=



000
FTUS45 KBYZ 230001 AAA
TAFBIL
TAF AMD
KBIL 230001Z 2300/2324 13012KT P6SM VCSH SCT050 BKN080
      TEMPO 2301/2302 6SM -TSRA BKN050CB
     FM230530 02008KT P6SM FEW060 BKN120
     FM231400 04011KT P6SM VCSH SCT015 BKN030 OVC070=



000
FTUS45 KBYZ 230001 AAA
TAFBIL
TAF AMD
KBIL 230001Z 2300/2324 13012KT P6SM VCSH SCT050 BKN080
      TEMPO 2301/2302 6SM -TSRA BKN050CB
     FM230530 02008KT P6SM FEW060 BKN120
     FM231400 04011KT P6SM VCSH SCT015 BKN030 OVC070=



000
FTUS45 KBYZ 222320
TAFBIL
TAF
KBIL 222320Z 2300/2324 08012KT P6SM VCSH SCT050 BKN080
     FM230530 02008KT P6SM FEW060 BKN120
     FM231400 04011KT P6SM VCSH SCT015 BKN030 OVC070=



000
FTUS45 KBYZ 222320
TAFSHR
TAF
KSHR 222320Z 2300/2324 14019G28KT P6SM VCSH FEW045 BKN100
     FM230300 14007KT P6SM FEW070 BKN120
     FM231500 VRB05KT P6SM VCSH SCT020 BKN070=



000
FTUS45 KBYZ 222320
TAFMLS
TAF
KMLS 222320Z 2300/2324 15016G24KT P6SM BKN080 BKN200
     FM230330 14009KT P6SM SCT090 BKN180
     FM231200 09010KT P6SM FEW080 BKN110=



000
FTUS45 KBYZ 222320
TAFLVM
TAF
KLVM 222320Z 2300/2324 07015G20KT P6SM VCSH SCT050 BKN140
     FM230530 10011KT P6SM SCT050 OVC110
     FM231200 08012KT P6SM VCSH SCT025 OVC050=



000
FTUS45 KBYZ 222320
TAFMLS
TAF
KMLS 222320Z 2300/2324 15016G24KT P6SM BKN080 BKN200
     FM230330 14009KT P6SM SCT090 BKN180
     FM231200 09010KT P6SM FEW080 BKN110=



000
FTUS45 KBYZ 222320
TAFLVM
TAF
KLVM 222320Z 2300/2324 07015G20KT P6SM VCSH SCT050 BKN140
     FM230530 10011KT P6SM SCT050 OVC110
     FM231200 08012KT P6SM VCSH SCT025 OVC050=



000
FTUS45 KBYZ 222320
TAFSHR
TAF
KSHR 222320Z 2300/2324 14019G28KT P6SM VCSH FEW045 BKN100
     FM230300 14007KT P6SM FEW070 BKN120
     FM231500 VRB05KT P6SM VCSH SCT020 BKN070=



000
FTUS45 KBYZ 222320
TAFBIL
TAF
KBIL 222320Z 2300/2324 08012KT P6SM VCSH SCT050 BKN080
     FM230530 02008KT P6SM FEW060 BKN120
     FM231400 04011KT P6SM VCSH SCT015 BKN030 OVC070=



000
FTUS45 KBYZ 222320
TAFBIL
TAF
KBIL 222320Z 2300/2324 08012KT P6SM VCSH SCT050 BKN080
     FM230530 02008KT P6SM FEW060 BKN120
     FM231400 04011KT P6SM VCSH SCT015 BKN030 OVC070=



000
FTUS45 KBYZ 222320
TAFLVM
TAF
KLVM 222320Z 2300/2324 07015G20KT P6SM VCSH SCT050 BKN140
     FM230530 10011KT P6SM SCT050 OVC110
     FM231200 08012KT P6SM VCSH SCT025 OVC050=



000
FTUS45 KBYZ 222320
TAFMLS
TAF
KMLS 222320Z 2300/2324 15016G24KT P6SM BKN080 BKN200
     FM230330 14009KT P6SM SCT090 BKN180
     FM231200 09010KT P6SM FEW080 BKN110=



000
FTUS45 KBYZ 222320
TAFSHR
TAF
KSHR 222320Z 2300/2324 14019G28KT P6SM VCSH FEW045 BKN100
     FM230300 14007KT P6SM FEW070 BKN120
     FM231500 VRB05KT P6SM VCSH SCT020 BKN070=



000
FTUS45 KBYZ 221734
TAFMLS
TAF
KMLS 221734Z 2218/2318 13015G22KT P6SM SCT050 BKN080 BKN150
     FM230300 13010KT P6SM FEW050 SCT150=



000
FTUS45 KBYZ 221734
TAFLVM
TAF
KLVM 221734Z 2218/2318 09008KT P6SM BKN150
     FM222000 09011KT P6SM VCTS SCT050CB BKN150
     FM230400 10010KT P6SM SCT050 BKN150=



000
FTUS45 KBYZ 221734
TAFBIL
TAF
KBIL 221734Z 2218/2318 06008KT P6SM SCT150
     FM222100 08014KT P6SM VCTS SCT050CB BKN150
     FM230400 04010KT P6SM FEW050 BKN150=



000
FTUS45 KBYZ 221734
TAFBIL
TAF
KBIL 221734Z 2218/2318 06008KT P6SM SCT150
     FM222100 08014KT P6SM VCTS SCT050CB BKN150
     FM230400 04010KT P6SM FEW050 BKN150=



000
FTUS45 KBYZ 221734
TAFLVM
TAF
KLVM 221734Z 2218/2318 09008KT P6SM BKN150
     FM222000 09011KT P6SM VCTS SCT050CB BKN150
     FM230400 10010KT P6SM SCT050 BKN150=



000
FTUS45 KBYZ 221734
TAFSHR
TAF
KSHR 221734Z 2218/2318 14015KT P6SM BKN150
     FM221900 14015G20KT P6SM VCTS SCT050CB BKN100
     FM230200 15008KT P6SM SCT050 BKN100=



000
FTUS45 KBYZ 221734
TAFMLS
TAF
KMLS 221734Z 2218/2318 13015G22KT P6SM SCT050 BKN080 BKN150
     FM230300 13010KT P6SM FEW050 SCT150=



000
FTUS45 KBYZ 221734
TAFSHR
TAF
KSHR 221734Z 2218/2318 14015KT P6SM BKN150
     FM221900 14015G20KT P6SM VCTS SCT050CB BKN100
     FM230200 15008KT P6SM SCT050 BKN100=



000
FTUS45 KBYZ 221305 AAB
TAFLVM
TAF AMD
KLVM 221305Z 2213/2312 VRB05KT P6SM VCFG FEW002
      TEMPO 2213/2214 1/2SM FG VV002
     FM221500 09008KT P6SM BKN150
     FM222000 09011KT P6SM VCTS SCT050CB BKN150
     FM230100 10010KT P6SM SCT050 BKN150=



000
FTUS45 KBYZ 221305 AAB
TAFLVM
TAF AMD
KLVM 221305Z 2213/2312 VRB05KT P6SM VCFG FEW002
      TEMPO 2213/2214 1/2SM FG VV002
     FM221500 09008KT P6SM BKN150
     FM222000 09011KT P6SM VCTS SCT050CB BKN150
     FM230100 10010KT P6SM SCT050 BKN150=



000
FTUS45 KBYZ 221219 AAA
TAFLVM
TAF AMD
KLVM 221219Z 2212/2312 VRB05KT 1/4SM FG OVC001
     FM221500 09008KT P6SM BKN150
     FM222000 09011KT P6SM VCTS SCT050CB BKN150
     FM230100 10010KT P6SM SCT050 BKN150=



000
FTUS45 KBYZ 221219 AAA
TAFLVM
TAF AMD
KLVM 221219Z 2212/2312 VRB05KT 1/4SM FG OVC001
     FM221500 09008KT P6SM BKN150
     FM222000 09011KT P6SM VCTS SCT050CB BKN150
     FM230100 10010KT P6SM SCT050 BKN150=



000
FTUS45 KBYZ 221219 AAA
TAFLVM
TAF AMD
KLVM 221219Z 2212/2312 VRB05KT 1/4SM FG OVC001
     FM221500 09008KT P6SM BKN150
     FM222000 09011KT P6SM VCTS SCT050CB BKN150
     FM230100 10010KT P6SM SCT050 BKN150=



000
FTUS45 KBYZ 221219 AAA
TAFLVM
TAF AMD
KLVM 221219Z 2212/2312 VRB05KT 1/4SM FG OVC001
     FM221500 09008KT P6SM BKN150
     FM222000 09011KT P6SM VCTS SCT050CB BKN150
     FM230100 10010KT P6SM SCT050 BKN150=



000
FTUS45 KBYZ 221123
TAFSHR
TAF
KSHR 221123Z 2212/2312 17008KT P6SM BKN150
     FM222000 14015G20KT P6SM VCTS SCT050CB BKN100
     FM230200 15008KT P6SM SCT050 BKN100=



000
FTUS45 KBYZ 221123
TAFMLS
TAF
KMLS 221123Z 2212/2312 14008KT P6SM FEW200
     FM221700 13015G22KT P6SM SCT050 BKN150
     FM230100 13010KT P6SM FEW050 BKN150=



000
FTUS45 KBYZ 221123
TAFSHR
TAF
KSHR 221123Z 2212/2312 17008KT P6SM BKN150
     FM222000 14015G20KT P6SM VCTS SCT050CB BKN100
     FM230200 15008KT P6SM SCT050 BKN100=



000
FTUS45 KBYZ 221123
TAFBIL
TAF
KBIL 221123Z 2212/2312 06008KT P6SM SCT150
     FM222100 08014KT P6SM VCSH SCT050 BKN150
     FM230200 04010KT P6SM FEW050 BKN150=



000
FTUS45 KBYZ 221123
TAFBIL
TAF
KBIL 221123Z 2212/2312 06008KT P6SM SCT150
     FM222100 08014KT P6SM VCSH SCT050 BKN150
     FM230200 04010KT P6SM FEW050 BKN150=



000
FTUS45 KBYZ 221123
TAFLVM
TAF
KLVM 221123Z 2212/2312 13007KT P6SM FEW050 BKN150
     FM222000 09011KT P6SM VCTS SCT050CB BKN150
     FM230100 10010KT P6SM SCT050 BKN150=



000
FTUS45 KBYZ 221123
TAFLVM
TAF
KLVM 221123Z 2212/2312 13007KT P6SM FEW050 BKN150
     FM222000 09011KT P6SM VCTS SCT050CB BKN150
     FM230100 10010KT P6SM SCT050 BKN150=



000
FTUS45 KBYZ 221123
TAFMLS
TAF
KMLS 221123Z 2212/2312 14008KT P6SM FEW200
     FM221700 13015G22KT P6SM SCT050 BKN150
     FM230100 13010KT P6SM FEW050 BKN150=



000
FTUS45 KBYZ 221123
TAFBIL
TAF
KBIL 221123Z 2212/2312 06008KT P6SM SCT150
     FM222100 08014KT P6SM VCSH SCT050 BKN150
     FM230200 04010KT P6SM FEW050 BKN150=



000
FTUS45 KBYZ 221123
TAFMLS
TAF
KMLS 221123Z 2212/2312 14008KT P6SM FEW200
     FM221700 13015G22KT P6SM SCT050 BKN150
     FM230100 13010KT P6SM FEW050 BKN150=



000
FTUS45 KBYZ 221123
TAFSHR
TAF
KSHR 221123Z 2212/2312 17008KT P6SM BKN150
     FM222000 14015G20KT P6SM VCTS SCT050CB BKN100
     FM230200 15008KT P6SM SCT050 BKN100=



000
FTUS45 KBYZ 221123
TAFLVM
TAF
KLVM 221123Z 2212/2312 13007KT P6SM FEW050 BKN150
     FM222000 09011KT P6SM VCTS SCT050CB BKN150
     FM230100 10010KT P6SM SCT050 BKN150=



000
FTUS45 KBYZ 221123
TAFLVM
TAF
KLVM 221123Z 2212/2312 13007KT P6SM FEW050 BKN150
     FM222000 09011KT P6SM VCTS SCT050CB BKN150
     FM230100 10010KT P6SM SCT050 BKN150=



000
FTUS45 KBYZ 221123
TAFMLS
TAF
KMLS 221123Z 2212/2312 14008KT P6SM FEW200
     FM221700 13015G22KT P6SM SCT050 BKN150
     FM230100 13010KT P6SM FEW050 BKN150=



000
FTUS45 KBYZ 221123
TAFBIL
TAF
KBIL 221123Z 2212/2312 06008KT P6SM SCT150
     FM222100 08014KT P6SM VCSH SCT050 BKN150
     FM230200 04010KT P6SM FEW050 BKN150=



000
FTUS45 KBYZ 221123
TAFSHR
TAF
KSHR 221123Z 2212/2312 17008KT P6SM BKN150
     FM222000 14015G20KT P6SM VCTS SCT050CB BKN100
     FM230200 15008KT P6SM SCT050 BKN100=



000
FTUS45 KBYZ 220718 AAA
TAFMLS
TAF AMD
KMLS 220718Z 2207/2306 14008KT P6SM FEW200
     FM221900 12015G22KT P6SM SCT050 BKN150
     FM230200 13010KT P6SM FEW050 BKN150=



000
FTUS45 KBYZ 220718 AAA
TAFMLS
TAF AMD
KMLS 220718Z 2207/2306 14008KT P6SM FEW200
     FM221900 12015G22KT P6SM SCT050 BKN150
     FM230200 13010KT P6SM FEW050 BKN150=



000
FTUS45 KBYZ 220718 AAA
TAFMLS
TAF AMD
KMLS 220718Z 2207/2306 14008KT P6SM FEW200
     FM221900 12015G22KT P6SM SCT050 BKN150
     FM230200 13010KT P6SM FEW050 BKN150=



000
FTUS45 KBYZ 220718 AAA
TAFMLS
TAF AMD
KMLS 220718Z 2207/2306 14008KT P6SM FEW200
     FM221900 12015G22KT P6SM SCT050 BKN150
     FM230200 13010KT P6SM FEW050 BKN150=



000
FTUS45 KBYZ 220718 AAA
TAFLVM
TAF AMD
KLVM 220718Z 2207/2306 13007KT P6SM FEW050 BKN150
     FM221800 09015KT P6SM VCTS FEW040 SCT080CB BKN150
     FM230000 10010KT P6SM SCT080 BKN150=



000
FTUS45 KBYZ 220718 AAA
TAFLVM
TAF AMD
KLVM 220718Z 2207/2306 13007KT P6SM FEW050 BKN150
     FM221800 09015KT P6SM VCTS FEW040 SCT080CB BKN150
     FM230000 10010KT P6SM SCT080 BKN150=



000
FTUS45 KBYZ 220528
TAFBIL
TAF
KBIL 220528Z 2206/2306 08008KT P6SM SCT150
     FM221900 08014KT P6SM VCSH SCT050 BKN150
     FM230200 08010KT P6SM FEW050 BKN150=



000
FTUS45 KBYZ 220528
TAFLVM
TAF
KLVM 220528Z 2206/2306 09012KT P6SM BKN080 BKN150
     FM221800 09015KT P6SM VCTS FEW040 SCT080CB BKN150
     FM230000 10010KT P6SM SCT080 BKN150=



000
FTUS45 KBYZ 220528
TAFSHR
TAF
KSHR 220528Z 2206/2306 14008KT P6SM SCT040 SCT150
     FM221600 14011KT P6SM FEW025 SCT050 BKN150
     FM222000 14015G20KT P6SM VCTS SCT050CB BKN100
     FM230200 15008KT P6SM SCT050 BKN100=



000
FTUS45 KBYZ 220528
TAFMLS
TAF
KMLS 220528Z 2206/2306 14012G20KT P6SM FEW200
     FM221900 12015G22KT P6SM SCT050 BKN150
     FM230200 13010KT P6SM FEW050 BKN150=



000
FTUS45 KBYZ 220528
TAFSHR
TAF
KSHR 220528Z 2206/2306 14008KT P6SM SCT040 SCT150
     FM221600 14011KT P6SM FEW025 SCT050 BKN150
     FM222000 14015G20KT P6SM VCTS SCT050CB BKN100
     FM230200 15008KT P6SM SCT050 BKN100=



000
FTUS45 KBYZ 220528
TAFLVM
TAF
KLVM 220528Z 2206/2306 09012KT P6SM BKN080 BKN150
     FM221800 09015KT P6SM VCTS FEW040 SCT080CB BKN150
     FM230000 10010KT P6SM SCT080 BKN150=



000
FTUS45 KBYZ 220528
TAFBIL
TAF
KBIL 220528Z 2206/2306 08008KT P6SM SCT150
     FM221900 08014KT P6SM VCSH SCT050 BKN150
     FM230200 08010KT P6SM FEW050 BKN150=



000
FTUS45 KBYZ 220528
TAFMLS
TAF
KMLS 220528Z 2206/2306 14012G20KT P6SM FEW200
     FM221900 12015G22KT P6SM SCT050 BKN150
     FM230200 13010KT P6SM FEW050 BKN150=



000
FTUS45 KBYZ 220528
TAFLVM
TAF
KLVM 220528Z 2206/2306 09012KT P6SM BKN080 BKN150
     FM221800 09015KT P6SM VCTS FEW040 SCT080CB BKN150
     FM230000 10010KT P6SM SCT080 BKN150=



000
FTUS45 KBYZ 220528
TAFSHR
TAF
KSHR 220528Z 2206/2306 14008KT P6SM SCT040 SCT150
     FM221600 14011KT P6SM FEW025 SCT050 BKN150
     FM222000 14015G20KT P6SM VCTS SCT050CB BKN100
     FM230200 15008KT P6SM SCT050 BKN100=



000
FTUS45 KBYZ 220528
TAFBIL
TAF
KBIL 220528Z 2206/2306 08008KT P6SM SCT150
     FM221900 08014KT P6SM VCSH SCT050 BKN150
     FM230200 08010KT P6SM FEW050 BKN150=



000
FTUS45 KBYZ 220528
TAFMLS
TAF
KMLS 220528Z 2206/2306 14012G20KT P6SM FEW200
     FM221900 12015G22KT P6SM SCT050 BKN150
     FM230200 13010KT P6SM FEW050 BKN150=



000
FTUS45 KBYZ 220528
TAFMLS
TAF
KMLS 220528Z 2206/2306 14012G20KT P6SM FEW200
     FM221900 12015G22KT P6SM SCT050 BKN150
     FM230200 13010KT P6SM FEW050 BKN150=



000
FTUS45 KBYZ 220528
TAFBIL
TAF
KBIL 220528Z 2206/2306 08008KT P6SM SCT150
     FM221900 08014KT P6SM VCSH SCT050 BKN150
     FM230200 08010KT P6SM FEW050 BKN150=



000
FTUS45 KBYZ 220528
TAFLVM
TAF
KLVM 220528Z 2206/2306 09012KT P6SM BKN080 BKN150
     FM221800 09015KT P6SM VCTS FEW040 SCT080CB BKN150
     FM230000 10010KT P6SM SCT080 BKN150=



000
FTUS45 KBYZ 220528
TAFSHR
TAF
KSHR 220528Z 2206/2306 14008KT P6SM SCT040 SCT150
     FM221600 14011KT P6SM FEW025 SCT050 BKN150
     FM222000 14015G20KT P6SM VCTS SCT050CB BKN100
     FM230200 15008KT P6SM SCT050 BKN100=



000
FTUS45 KBYZ 220302 AAA
TAFLVM
TAF AMD
KLVM 220302Z 2203/2224 07010KT P6SM VCSH FEW040 BKN070 OVC150
      TEMPO 2203/2205 3SM -RA OVC040
     FM220500 09012KT P6SM SCT080 BKN150
     FM221800 09015KT P6SM VCTS FEW040 SCT080CB BKN150=



000
FTUS45 KBYZ 220302 AAA
TAFLVM
TAF AMD
KLVM 220302Z 2203/2224 07010KT P6SM VCSH FEW040 BKN070 OVC150
      TEMPO 2203/2205 3SM -RA OVC040
     FM220500 09012KT P6SM SCT080 BKN150
     FM221800 09015KT P6SM VCTS FEW040 SCT080CB BKN150=



000
FTUS45 KBYZ 212320
TAFBIL
TAF
KBIL 212320Z 2200/2224 11015KT P6SM SCT060 SCT200
     FM220500 08008KT P6SM FEW060 SCT150
     FM221900 08014KT P6SM VCSH SCT050 BKN150=



000
FTUS45 KBYZ 212320
TAFBIL
TAF
KBIL 212320Z 2200/2224 11015KT P6SM SCT060 SCT200
     FM220500 08008KT P6SM FEW060 SCT150
     FM221900 08014KT P6SM VCSH SCT050 BKN150=



000
FTUS45 KBYZ 212320
TAFBIL
TAF
KBIL 212320Z 2200/2224 11015KT P6SM SCT060 SCT200
     FM220500 08008KT P6SM FEW060 SCT150
     FM221900 08014KT P6SM VCSH SCT050 BKN150=



000
FTUS45 KBYZ 212320
TAFMLS
TAF
KMLS 212320Z 2200/2224 14012G20KT P6SM FEW200
     FM221900 12015G22KT P6SM SCT050 BKN150=



000
FTUS45 KBYZ 212320
TAFBIL
TAF
KBIL 212320Z 2200/2224 11015KT P6SM SCT060 SCT200
     FM220500 08008KT P6SM FEW060 SCT150
     FM221900 08014KT P6SM VCSH SCT050 BKN150=



000
FTUS45 KBYZ 212320
TAFSHR
TAF
KSHR 212320Z 2200/2224 12014G22KT P6SM VCSH BKN050 BKN150
     FM220400 12010KT P6SM SCT040 SCT150
     FM221000 VRB05KT P6SM VCFG FEW005 SCT025 BKN150
     FM221600 14011KT P6SM FEW025 SCT050 BKN150
     FM222000 14015G20KT P6SM VCTS SCT050CB BKN100=



000
FTUS45 KBYZ 212320
TAFLVM
TAF
KLVM 212320Z 2200/2224 07019KT P6SM VCTS FEW040 BKN070CB OVC150
     FM220300 09012KT P6SM SCT080 BKN150
     FM221800 09015KT P6SM VCTS FEW040 SCT080CB BKN150=



000
FTUS45 KBYZ 212320
TAFMLS
TAF
KMLS 212320Z 2200/2224 14012G20KT P6SM FEW200
     FM221900 12015G22KT P6SM SCT050 BKN150=



000
FTUS45 KBYZ 212320
TAFSHR
TAF
KSHR 212320Z 2200/2224 12014G22KT P6SM VCSH BKN050 BKN150
     FM220400 12010KT P6SM SCT040 SCT150
     FM221000 VRB05KT P6SM VCFG FEW005 SCT025 BKN150
     FM221600 14011KT P6SM FEW025 SCT050 BKN150
     FM222000 14015G20KT P6SM VCTS SCT050CB BKN100=



000
FTUS45 KBYZ 212320
TAFLVM
TAF
KLVM 212320Z 2200/2224 07019KT P6SM VCTS FEW040 BKN070CB OVC150
     FM220300 09012KT P6SM SCT080 BKN150
     FM221800 09015KT P6SM VCTS FEW040 SCT080CB BKN150=



000
FTUS45 KBYZ 212320
TAFSHR
TAF
KSHR 212320Z 2200/2224 12014G22KT P6SM VCSH BKN050 BKN150
     FM220400 12010KT P6SM SCT040 SCT150
     FM221000 VRB05KT P6SM VCFG FEW005 SCT025 BKN150
     FM221600 14011KT P6SM FEW025 SCT050 BKN150
     FM222000 14015G20KT P6SM VCTS SCT050CB BKN100=



000
FTUS45 KBYZ 212320
TAFLVM
TAF
KLVM 212320Z 2200/2224 07019KT P6SM VCTS FEW040 BKN070CB OVC150
     FM220300 09012KT P6SM SCT080 BKN150
     FM221800 09015KT P6SM VCTS FEW040 SCT080CB BKN150=



000
FTUS45 KBYZ 212320
TAFMLS
TAF
KMLS 212320Z 2200/2224 14012G20KT P6SM FEW200
     FM221900 12015G22KT P6SM SCT050 BKN150=



000
FTUS45 KBYZ 212320
TAFLVM
TAF
KLVM 212320Z 2200/2224 07019KT P6SM VCTS FEW040 BKN070CB OVC150
     FM220300 09012KT P6SM SCT080 BKN150
     FM221800 09015KT P6SM VCTS FEW040 SCT080CB BKN150=



000
FTUS45 KBYZ 212320
TAFSHR
TAF
KSHR 212320Z 2200/2224 12014G22KT P6SM VCSH BKN050 BKN150
     FM220400 12010KT P6SM SCT040 SCT150
     FM221000 VRB05KT P6SM VCFG FEW005 SCT025 BKN150
     FM221600 14011KT P6SM FEW025 SCT050 BKN150
     FM222000 14015G20KT P6SM VCTS SCT050CB BKN100=



000
FTUS45 KBYZ 212320
TAFMLS
TAF
KMLS 212320Z 2200/2224 14012G20KT P6SM FEW200
     FM221900 12015G22KT P6SM SCT050 BKN150=



000
FTUS45 KBYZ 212122 AAA
TAFBIL
TAF AMD
KBIL 212122Z 2121/2218 09012G18KT P6SM FEW070 FEW160
     FM220500 04007KT P6SM SCT100=



000
FTUS45 KBYZ 212122 AAA
TAFBIL
TAF AMD
KBIL 212122Z 2121/2218 09012G18KT P6SM FEW070 FEW160
     FM220500 04007KT P6SM SCT100=



000
FTUS45 KBYZ 212118 AAA
TAFLVM
TAF AMD
KLVM 212118Z 2121/2218 07017G25KT P6SM VCSH BKN110
      TEMPO 2121/2123 -TSRA BKN070CB
     FM220400 09010KT P6SM SCT050
     FM220800 VRB05KT P6SM SCT070
     FM221600 08009KT P6SM SCT080=



000
FTUS45 KBYZ 212118 AAA
TAFLVM
TAF AMD
KLVM 212118Z 2121/2218 07017G25KT P6SM VCSH BKN110
      TEMPO 2121/2123 -TSRA BKN070CB
     FM220400 09010KT P6SM SCT050
     FM220800 VRB05KT P6SM SCT070
     FM221600 08009KT P6SM SCT080=



000
FTUS45 KBYZ 212118 AAA
TAFLVM
TAF AMD
KLVM 212118Z 2121/2218 07017G25KT P6SM VCSH BKN110
      TEMPO 2121/2123 -TSRA BKN070CB
     FM220400 09010KT P6SM SCT050
     FM220800 VRB05KT P6SM SCT070
     FM221600 08009KT P6SM SCT080=



000
FTUS45 KBYZ 211720
TAFLVM
TAF
KLVM 211720Z 2118/2218 09010KT P6SM VCSH SCT060 OVC080
     FM212100 09015KT P6SM VCSH SCT040 OVC080
     FM220400 09010KT P6SM SCT050
     FM220800 VRB05KT P6SM SCT070
     FM221600 08009KT P6SM SCT080=



000
FTUS45 KBYZ 211720
TAFBIL
TAF
KBIL 211720Z 2118/2218 09008KT P6SM SCT050 SCT150
     FM212300 10014KT P6SM SCT100
     FM220600 VRB05KT P6SM SCT100=



000
FTUS45 KBYZ 211720
TAFBIL
TAF
KBIL 211720Z 2118/2218 09008KT P6SM SCT050 SCT150
     FM212300 10014KT P6SM SCT100
     FM220600 VRB05KT P6SM SCT100=



000
FTUS45 KBYZ 211720
TAFSHR
TAF
KSHR 211720Z 2118/2218 12010KT P6SM SCT035 SCT200
     FM220300 15009KT P6SM SCT050 BKN100
     FM220900 VRB06KT P6SM SCT100
     FM221500 11012G20KT P6SM SCT200=



000
FTUS45 KBYZ 211720
TAFBIL
TAF
KBIL 211720Z 2118/2218 09008KT P6SM SCT050 SCT150
     FM212300 10014KT P6SM SCT100
     FM220600 VRB05KT P6SM SCT100=



000
FTUS45 KBYZ 211720
TAFMLS
TAF
KMLS 211720Z 2118/2218 13014KT P6SM SKC
     FM220000 13014G23KT P6SM SKC
     FM220400 11010KT P6SM SKC WS014/15035KT
     FM221500 12016KT P6SM SCT050 BKN100=



000
FTUS45 KBYZ 211720
TAFLVM
TAF
KLVM 211720Z 2118/2218 09010KT P6SM VCSH SCT060 OVC080
     FM212100 09015KT P6SM VCSH SCT040 OVC080
     FM220400 09010KT P6SM SCT050
     FM220800 VRB05KT P6SM SCT070
     FM221600 08009KT P6SM SCT080=



000
FTUS45 KBYZ 211720
TAFSHR
TAF
KSHR 211720Z 2118/2218 12010KT P6SM SCT035 SCT200
     FM220300 15009KT P6SM SCT050 BKN100
     FM220900 VRB06KT P6SM SCT100
     FM221500 11012G20KT P6SM SCT200=



000
FTUS45 KBYZ 211720
TAFMLS
TAF
KMLS 211720Z 2118/2218 13014KT P6SM SKC
     FM220000 13014G23KT P6SM SKC
     FM220400 11010KT P6SM SKC WS014/15035KT
     FM221500 12016KT P6SM SCT050 BKN100=



000
FTUS45 KBYZ 211720
TAFBIL
TAF
KBIL 211720Z 2118/2218 09008KT P6SM SCT050 SCT150
     FM212300 10014KT P6SM SCT100
     FM220600 VRB05KT P6SM SCT100=



000
FTUS45 KBYZ 211720
TAFSHR
TAF
KSHR 211720Z 2118/2218 12010KT P6SM SCT035 SCT200
     FM220300 15009KT P6SM SCT050 BKN100
     FM220900 VRB06KT P6SM SCT100
     FM221500 11012G20KT P6SM SCT200=



000
FTUS45 KBYZ 211720
TAFMLS
TAF
KMLS 211720Z 2118/2218 13014KT P6SM SKC
     FM220000 13014G23KT P6SM SKC
     FM220400 11010KT P6SM SKC WS014/15035KT
     FM221500 12016KT P6SM SCT050 BKN100=



000
FTUS45 KBYZ 211720
TAFMLS
TAF
KMLS 211720Z 2118/2218 13014KT P6SM SKC
     FM220000 13014G23KT P6SM SKC
     FM220400 11010KT P6SM SKC WS014/15035KT
     FM221500 12016KT P6SM SCT050 BKN100=



000
FTUS45 KBYZ 211720
TAFLVM
TAF
KLVM 211720Z 2118/2218 09010KT P6SM VCSH SCT060 OVC080
     FM212100 09015KT P6SM VCSH SCT040 OVC080
     FM220400 09010KT P6SM SCT050
     FM220800 VRB05KT P6SM SCT070
     FM221600 08009KT P6SM SCT080=



000
FTUS45 KBYZ 211720
TAFSHR
TAF
KSHR 211720Z 2118/2218 12010KT P6SM SCT035 SCT200
     FM220300 15009KT P6SM SCT050 BKN100
     FM220900 VRB06KT P6SM SCT100
     FM221500 11012G20KT P6SM SCT200=



000
FTUS45 KBYZ 211720
TAFLVM
TAF
KLVM 211720Z 2118/2218 09010KT P6SM VCSH SCT060 OVC080
     FM212100 09015KT P6SM VCSH SCT040 OVC080
     FM220400 09010KT P6SM SCT050
     FM220800 VRB05KT P6SM SCT070
     FM221600 08009KT P6SM SCT080=



000
FTUS45 KBYZ 211128
TAFMLS
TAF
KMLS 211128Z 2112/2212 14006KT P6SM SKC
     FM211800 15014KT P6SM FEW200=



000
FTUS45 KBYZ 211128
TAFLVM
TAF
KLVM 211128Z 2112/2212 09008KT P6SM BKN120
     FM211800 09012KT P6SM VCSH SCT060 OVC080=



000
FTUS45 KBYZ 211128
TAFBIL
TAF
KBIL 211128Z 2112/2212 22006KT P6SM FEW200
     FM211600 09008KT P6SM FEW200=



000
FTUS45 KBYZ 211128
TAFSHR
TAF
KSHR 211128Z 2112/2212 14004KT P6SM SCT200
     FM211800 14008KT P6SM SCT120 BKN200=



000
FTUS45 KBYZ 211128
TAFBIL
TAF
KBIL 211128Z 2112/2212 22006KT P6SM FEW200
     FM211600 09008KT P6SM FEW200=



000
FTUS45 KBYZ 211128
TAFMLS
TAF
KMLS 211128Z 2112/2212 14006KT P6SM SKC
     FM211800 15014KT P6SM FEW200=



000
FTUS45 KBYZ 211128
TAFLVM
TAF
KLVM 211128Z 2112/2212 09008KT P6SM BKN120
     FM211800 09012KT P6SM VCSH SCT060 OVC080=



000
FTUS45 KBYZ 211128
TAFLVM
TAF
KLVM 211128Z 2112/2212 09008KT P6SM BKN120
     FM211800 09012KT P6SM VCSH SCT060 OVC080=



000
FTUS45 KBYZ 211128
TAFMLS
TAF
KMLS 211128Z 2112/2212 14006KT P6SM SKC
     FM211800 15014KT P6SM FEW200=



000
FTUS45 KBYZ 211128
TAFBIL
TAF
KBIL 211128Z 2112/2212 22006KT P6SM FEW200
     FM211600 09008KT P6SM FEW200=



000
FTUS45 KBYZ 211128
TAFSHR
TAF
KSHR 211128Z 2112/2212 14004KT P6SM SCT200
     FM211800 14008KT P6SM SCT120 BKN200=



000
FTUS45 KBYZ 211128
TAFSHR
TAF
KSHR 211128Z 2112/2212 14004KT P6SM SCT200
     FM211800 14008KT P6SM SCT120 BKN200=



000
FTUS45 KBYZ 210537
TAFMLS
TAF
KMLS 210537Z 2106/2206 15004KT P6SM SKC
     FM211800 15014KT P6SM FEW200=



000
FTUS45 KBYZ 210537
TAFMLS
TAF
KMLS 210537Z 2106/2206 15004KT P6SM SKC
     FM211800 15014KT P6SM FEW200=



000
FTUS45 KBYZ 210537
TAFSHR
TAF
KSHR 210537Z 2106/2206 14008KT P6SM SCT200
     FM211800 14008KT P6SM SCT120 BKN200=



000
FTUS45 KBYZ 210537
TAFBIL
TAF
KBIL 210537Z 2106/2206 11010KT P6SM FEW200=



000
FTUS45 KBYZ 210537
TAFLVM
TAF
KLVM 210537Z 2106/2206 10012KT P6SM SCT200
     FM210900 09012KT P6SM BKN120
     FM211800 09014KT P6SM VCSH SCT060 OVC080=



000
FTUS45 KBYZ 210537
TAFLVM
TAF
KLVM 210537Z 2106/2206 10012KT P6SM SCT200
     FM210900 09012KT P6SM BKN120
     FM211800 09014KT P6SM VCSH SCT060 OVC080=



000
FTUS45 KBYZ 210537
TAFBIL
TAF
KBIL 210537Z 2106/2206 11010KT P6SM FEW200=



000
FTUS45 KBYZ 210537
TAFSHR
TAF
KSHR 210537Z 2106/2206 14008KT P6SM SCT200
     FM211800 14008KT P6SM SCT120 BKN200=



000
FTUS45 KBYZ 202325
TAFLVM
TAF
KLVM 202325Z 2100/2124 08020G24KT P6SM SKC
     FM210400 09009KT P6SM SCT200
     FM210900 08006KT P6SM BKN120
     FM211800 09014KT P6SM VCSH SCT080 BKN120=



000
FTUS45 KBYZ 202325
TAFSHR
TAF
KSHR 202325Z 2100/2124 13011G18KT P6SM FEW040
     FM210500 14005KT P6SM SCT200=



000
FTUS45 KBYZ 202325
TAFMLS
TAF
KMLS 202325Z 2100/2124 15009KT P6SM SKC=



000
FTUS45 KBYZ 202325
TAFLVM
TAF
KLVM 202325Z 2100/2124 08020G24KT P6SM SKC
     FM210400 09009KT P6SM SCT200
     FM210900 08006KT P6SM BKN120
     FM211800 09014KT P6SM VCSH SCT080 BKN120=



000
FTUS45 KBYZ 202325
TAFBIL
TAF
KBIL 202325Z 2100/2124 10010KT P6SM SCT060
     FM210800 09006KT P6SM FEW200=



000
FTUS45 KBYZ 202325
TAFMLS
TAF
KMLS 202325Z 2100/2124 15009KT P6SM SKC=



000
FTUS45 KBYZ 202325
TAFLVM
TAF
KLVM 202325Z 2100/2124 08020G24KT P6SM SKC
     FM210400 09009KT P6SM SCT200
     FM210900 08006KT P6SM BKN120
     FM211800 09014KT P6SM VCSH SCT080 BKN120=



000
FTUS45 KBYZ 202325
TAFSHR
TAF
KSHR 202325Z 2100/2124 13011G18KT P6SM FEW040
     FM210500 14005KT P6SM SCT200=



000
FTUS45 KBYZ 202325
TAFMLS
TAF
KMLS 202325Z 2100/2124 15009KT P6SM SKC=



000
FTUS45 KBYZ 202325
TAFMLS
TAF
KMLS 202325Z 2100/2124 15009KT P6SM SKC=



000
FTUS45 KBYZ 202325
TAFBIL
TAF
KBIL 202325Z 2100/2124 10010KT P6SM SCT060
     FM210800 09006KT P6SM FEW200=



000
FTUS45 KBYZ 202325
TAFLVM
TAF
KLVM 202325Z 2100/2124 08020G24KT P6SM SKC
     FM210400 09009KT P6SM SCT200
     FM210900 08006KT P6SM BKN120
     FM211800 09014KT P6SM VCSH SCT080 BKN120=



000
FTUS45 KBYZ 202325
TAFBIL
TAF
KBIL 202325Z 2100/2124 10010KT P6SM SCT060
     FM210800 09006KT P6SM FEW200=



000
FTUS45 KBYZ 202325
TAFSHR
TAF
KSHR 202325Z 2100/2124 13011G18KT P6SM FEW040
     FM210500 14005KT P6SM SCT200=



000
FTUS45 KBYZ 202325
TAFSHR
TAF
KSHR 202325Z 2100/2124 13011G18KT P6SM FEW040
     FM210500 14005KT P6SM SCT200=



000
FTUS45 KBYZ 202325
TAFBIL
TAF
KBIL 202325Z 2100/2124 10010KT P6SM SCT060
     FM210800 09006KT P6SM FEW200=



000
FTUS45 KBYZ 201720
TAFBIL
TAF
KBIL 201720Z 2018/2118 10009KT P6SM SCT025 SCT200
     FM202100 10010KT P6SM FEW040 SCT200
     FM211000 12006KT P6SM VCFG FEW002 SCT200=



000
FTUS45 KBYZ 201720
TAFMLS
TAF
KMLS 201720Z 2018/2118 14006KT P6SM SKC=



000
FTUS45 KBYZ 201720
TAFMLS
TAF
KMLS 201720Z 2018/2118 14006KT P6SM SKC=



000
FTUS45 KBYZ 201720
TAFBIL
TAF
KBIL 201720Z 2018/2118 10009KT P6SM SCT025 SCT200
     FM202100 10010KT P6SM FEW040 SCT200
     FM211000 12006KT P6SM VCFG FEW002 SCT200=



000
FTUS45 KBYZ 201720
TAFSHR
TAF
KSHR 201720Z 2018/2118 12010KT P6SM FEW035 SCT200
     FM211000 14010KT P6SM VCFG FEW005 SCT200=



000
FTUS45 KBYZ 201720
TAFLVM
TAF
KLVM 201720Z 2018/2118 08015KT P6SM FEW020 SCT200
     FM202100 08015G22KT P6SM FEW040 SCT200
     FM210400 08010KT P6SM SCT200
     FM211000 08006KT P6SM VCFG FEW005 SCT150=



000
FTUS45 KBYZ 201720
TAFMLS
TAF
KMLS 201720Z 2018/2118 14006KT P6SM SKC=



000
FTUS45 KBYZ 201720
TAFSHR
TAF
KSHR 201720Z 2018/2118 12010KT P6SM FEW035 SCT200
     FM211000 14010KT P6SM VCFG FEW005 SCT200=



000
FTUS45 KBYZ 201720
TAFSHR
TAF
KSHR 201720Z 2018/2118 12010KT P6SM FEW035 SCT200
     FM211000 14010KT P6SM VCFG FEW005 SCT200=



000
FTUS45 KBYZ 201720
TAFLVM
TAF
KLVM 201720Z 2018/2118 08015KT P6SM FEW020 SCT200
     FM202100 08015G22KT P6SM FEW040 SCT200
     FM210400 08010KT P6SM SCT200
     FM211000 08006KT P6SM VCFG FEW005 SCT150=



000
FTUS45 KBYZ 201720
TAFBIL
TAF
KBIL 201720Z 2018/2118 10009KT P6SM SCT025 SCT200
     FM202100 10010KT P6SM FEW040 SCT200
     FM211000 12006KT P6SM VCFG FEW002 SCT200=



000
FTUS45 KBYZ 201720
TAFMLS
TAF
KMLS 201720Z 2018/2118 14006KT P6SM SKC=



000
FTUS45 KBYZ 201720
TAFBIL
TAF
KBIL 201720Z 2018/2118 10009KT P6SM SCT025 SCT200
     FM202100 10010KT P6SM FEW040 SCT200
     FM211000 12006KT P6SM VCFG FEW002 SCT200=



000
FTUS45 KBYZ 201720
TAFLVM
TAF
KLVM 201720Z 2018/2118 08015KT P6SM FEW020 SCT200
     FM202100 08015G22KT P6SM FEW040 SCT200
     FM210400 08010KT P6SM SCT200
     FM211000 08006KT P6SM VCFG FEW005 SCT150=



000
FTUS45 KBYZ 201720
TAFLVM
TAF
KLVM 201720Z 2018/2118 08015KT P6SM FEW020 SCT200
     FM202100 08015G22KT P6SM FEW040 SCT200
     FM210400 08010KT P6SM SCT200
     FM211000 08006KT P6SM VCFG FEW005 SCT150=



000
FTUS45 KBYZ 201720
TAFSHR
TAF
KSHR 201720Z 2018/2118 12010KT P6SM FEW035 SCT200
     FM211000 14010KT P6SM VCFG FEW005 SCT200=



000
FTUS45 KBYZ 201531 AAD
TAFBIL
TAF AMD
KBIL 201531Z 2016/2112 06006KT P6SM BKN013 BKN150
      TEMPO 2016/2017 SCT013 SCT150
     FM201700 08006KT P6SM FEW150=



000
FTUS45 KBYZ 201531 AAD
TAFBIL
TAF AMD
KBIL 201531Z 2016/2112 06006KT P6SM BKN013 BKN150
      TEMPO 2016/2017 SCT013 SCT150
     FM201700 08006KT P6SM FEW150=



000
FTUS45 KBYZ 201351 AAA
TAFLVM
TAF AMD
KLVM 201351Z 2014/2112 09012KT P6SM BKN009 BKN060
      TEMPO 2014/2016 SCT009 BKN060
     FM201800 08012KT P6SM FEW009 SCT060 BKN120=



000
FTUS45 KBYZ 201351 AAA
TAFLVM
TAF AMD
KLVM 201351Z 2014/2112 09012KT P6SM BKN009 BKN060
      TEMPO 2014/2016 SCT009 BKN060
     FM201800 08012KT P6SM FEW009 SCT060 BKN120=



000
FTUS45 KBYZ 201351 AAA
TAFLVM
TAF AMD
KLVM 201351Z 2014/2112 09012KT P6SM BKN009 BKN060
      TEMPO 2014/2016 SCT009 BKN060
     FM201800 08012KT P6SM FEW009 SCT060 BKN120=



000
FTUS45 KBYZ 201351 AAA
TAFLVM
TAF AMD
KLVM 201351Z 2014/2112 09012KT P6SM BKN009 BKN060
      TEMPO 2014/2016 SCT009 BKN060
     FM201800 08012KT P6SM FEW009 SCT060 BKN120=



000
FTUS45 KBYZ 201332 AAC
TAFBIL
TAF AMD
KBIL 201332Z 2014/2112 06006KT P6SM VCFG BKN006 BKN150
      TEMPO 2014/2015 SCT006 SCT150
     FM201500 08006KT P6SM SCT100=



000
FTUS45 KBYZ 201332 AAC
TAFBIL
TAF AMD
KBIL 201332Z 2014/2112 06006KT P6SM VCFG BKN006 BKN150
      TEMPO 2014/2015 SCT006 SCT150
     FM201500 08006KT P6SM SCT100=



000
FTUS45 KBYZ 201251 AAB
TAFBIL
TAF AMD
KBIL 201251Z 2013/2112 06006KT P6SM FEW006 SCT100
     FM201500 08006KT P6SM SCT100=



000
FTUS45 KBYZ 201251 AAB
TAFBIL
TAF AMD
KBIL 201251Z 2013/2112 06006KT P6SM FEW006 SCT100
     FM201500 08006KT P6SM SCT100=



000
FTUS45 KBYZ 201251 AAB
TAFBIL
TAF AMD
KBIL 201251Z 2013/2112 06006KT P6SM FEW006 SCT100
     FM201500 08006KT P6SM SCT100=



000
FTUS45 KBYZ 201251 AAB
TAFBIL
TAF AMD
KBIL 201251Z 2013/2112 06006KT P6SM FEW006 SCT100
     FM201500 08006KT P6SM SCT100=



000
FTUS45 KBYZ 201205 AAA
TAFBIL
TAF AMD
KBIL 201205Z 2012/2112 08006KT P6SM VCFG BKN005
     FM201500 08006KT P6SM SCT100=



000
FTUS45 KBYZ 201205 AAA
TAFBIL
TAF AMD
KBIL 201205Z 2012/2112 08006KT P6SM VCFG BKN005
     FM201500 08006KT P6SM SCT100=



000
FTUS45 KBYZ 201205 AAA
TAFBIL
TAF AMD
KBIL 201205Z 2012/2112 08006KT P6SM VCFG BKN005
     FM201500 08006KT P6SM SCT100=



000
FTUS45 KBYZ 201205 AAA
TAFBIL
TAF AMD
KBIL 201205Z 2012/2112 08006KT P6SM VCFG BKN005
     FM201500 08006KT P6SM SCT100=



000
FTUS45 KBYZ 201120
TAFLVM
TAF
KLVM 201120Z 2012/2112 09012KT P6SM SCT020 BKN050
     FM201800 08012KT P6SM SCT100=



000
FTUS45 KBYZ 201120
TAFMLS
TAF
KMLS 201120Z 2012/2112 14006KT P6SM SKC=



000
FTUS45 KBYZ 201120
TAFBIL
TAF
KBIL 201120Z 2012/2112 04004KT P6SM BKN012
     FM201500 08006KT P6SM SCT100=



000
FTUS45 KBYZ 201120
TAFLVM
TAF
KLVM 201120Z 2012/2112 09012KT P6SM SCT020 BKN050
     FM201800 08012KT P6SM SCT100=



000
FTUS45 KBYZ 201120
TAFMLS
TAF
KMLS 201120Z 2012/2112 14006KT P6SM SKC=



000
FTUS45 KBYZ 201120
TAFSHR
TAF
KSHR 201120Z 2012/2112 14006KT P6SM OVC012
     FM201500 12006KT P6SM SCT100=



000
FTUS45 KBYZ 201120
TAFMLS
TAF
KMLS 201120Z 2012/2112 14006KT P6SM SKC=



000
FTUS45 KBYZ 201120
TAFBIL
TAF
KBIL 201120Z 2012/2112 04004KT P6SM BKN012
     FM201500 08006KT P6SM SCT100=



000
FTUS45 KBYZ 201120
TAFLVM
TAF
KLVM 201120Z 2012/2112 09012KT P6SM SCT020 BKN050
     FM201800 08012KT P6SM SCT100=



000
FTUS45 KBYZ 201120
TAFBIL
TAF
KBIL 201120Z 2012/2112 04004KT P6SM BKN012
     FM201500 08006KT P6SM SCT100=



000
FTUS45 KBYZ 201120
TAFSHR
TAF
KSHR 201120Z 2012/2112 14006KT P6SM OVC012
     FM201500 12006KT P6SM SCT100=



000
FTUS45 KBYZ 201120
TAFSHR
TAF
KSHR 201120Z 2012/2112 14006KT P6SM OVC012
     FM201500 12006KT P6SM SCT100=



000
FTUS45 KBYZ 201120
TAFSHR
TAF
KSHR 201120Z 2012/2112 14006KT P6SM OVC012
     FM201500 12006KT P6SM SCT100=



000
FTUS45 KBYZ 201120
TAFBIL
TAF
KBIL 201120Z 2012/2112 04004KT P6SM BKN012
     FM201500 08006KT P6SM SCT100=



000
FTUS45 KBYZ 201120
TAFMLS
TAF
KMLS 201120Z 2012/2112 14006KT P6SM SKC=



000
FTUS45 KBYZ 201120
TAFLVM
TAF
KLVM 201120Z 2012/2112 09012KT P6SM SCT020 BKN050
     FM201800 08012KT P6SM SCT100=



    US Dept of Commerce
    National Oceanic and Atmospheric Administration
    National Weather Service
    1325 East West Highway
    Silver Spring, MD 20910
    Page Author: NWS Internet Services Team
Disclaimer
Information Quality
Credits
Glossary
Privacy Policy
Freedom of Information Act (FOIA)
About Us
Career Opportunities